Time;durP1;ratioP1;P1;durP2;ratioP2;P2;SDS_P1;SDS_P2;PMS_P1;PMS_P2;Temp;Humidity;BMP_temperature;BMP_pressure;BME280_temperature;BME280_humidity;BME280_pressure;Samples;Min_cycle;Max_cycle;Signal;HPM_P1;HPM_P2
2021/05/16 00:00:24;;;;;;;0.38;0.38;;;;;;;13.90;100.00;96682.63;5076497;28;20024;-84
2021/05/16 00:02:50;;;;;;;0.25;0.20;;;;;;;13.96;100.00;96694.66;5092590;28;20036;-84
2021/05/16 00:05:18;;;;;;;1.55;0.73;;;;;;;13.95;100.00;96691.13;5093597;28;20020;-84
2021/05/16 00:07:43;;;;;;;0.08;0.08;;;;;;;14.01;100.00;96695.09;5092164;28;20059;-85
2021/05/16 00:10:10;;;;;;;0.63;0.47;;;;;;;13.96;100.00;96691.97;5059277;28;20027;-84
2021/05/16 00:12:36;;;;;;;0.75;0.65;;;;;;;13.98;100.00;96698.06;5060095;28;20020;-85
2021/05/16 00:15:05;;;;;;;0.40;0.20;;;;;;;13.96;100.00;96692.84;5059658;28;20115;-85
2021/05/16 00:17:30;;;;;;;0.63;0.32;;;;;;;13.88;100.00;96689.97;5058652;28;20024;-84
2021/05/16 00:19:56;;;;;;;0.20;0.20;;;;;;;13.94;100.00;96694.78;5059109;28;20035;-84
2021/05/16 00:22:22;;;;;;;0.50;0.45;;;;;;;13.95;100.00;96691.13;5059580;28;20055;-85
2021/05/16 00:24:47;;;;;;;0.55;0.52;;;;;;;13.97;100.00;96699.91;5092380;28;20085;-85
2021/05/16 00:27:13;;;;;;;1.85;0.75;;;;;;;13.95;100.00;96696.50;5076507;28;20057;-85
2021/05/16 00:29:38;;;;;;;0.77;0.30;;;;;;;13.91;100.00;96700.44;5059342;28;20024;-85
2021/05/16 00:32:04;;;;;;;0.25;0.20;;;;;;;13.89;100.00;96696.19;5091750;28;20020;-85
2021/05/16 00:34:30;;;;;;;0.15;0.15;;;;;;;13.89;100.00;96694.34;5059283;28;20039;-85
2021/05/16 00:36:56;;;;;;;0.63;0.63;;;;;;;13.93;100.00;96697.63;5059070;28;20043;-85
2021/05/16 00:39:21;;;;;;;0.05;0.05;;;;;;;13.95;100.00;96698.34;5058465;28;20097;-85
2021/05/16 00:41:47;;;;;;;0.25;0.22;;;;;;;14.00;100.00;96707.69;5059344;28;20051;-86
2021/05/16 00:44:18;;;;;;;1.00;0.40;;;;;;;13.96;100.00;96697.34;5075613;28;20059;-85
2021/05/16 00:46:44;;;;;;;3.20;1.90;;;;;;;13.99;100.00;96705.16;5059425;28;20024;-85
2021/05/16 00:49:11;;;;;;;0.70;0.43;;;;;;;14.05;100.00;96702.78;5058424;28;20062;-85
2021/05/16 00:51:37;;;;;;;0.28;0.28;;;;;;;14.07;100.00;96700.78;5059315;28;20123;-86
2021/05/16 00:54:07;;;;;;;0.50;0.30;;;;;;;14.09;100.00;96698.78;5059329;28;20476;-84
2021/05/16 00:56:33;;;;;;;1.00;0.60;;;;;;;14.10;100.00;96699.66;5058714;28;20035;-85
2021/05/16 00:58:59;;;;;;;1.50;1.00;;;;;;;14.09;100.00;96703.31;5058994;28;20024;-85
2021/05/16 01:01:26;;;;;;;1.23;1.13;;;;;;;14.00;100.00;96693.38;5059531;28;20028;-85
2021/05/16 01:03:52;;;;;;;0.43;0.30;;;;;;;14.05;100.00;96705.47;5075495;28;20028;-84
2021/05/16 01:06:18;;;;;;;0.32;0.22;;;;;;;13.96;100.00;96691.97;5058500;28;20483;-84
2021/05/16 01:08:47;;;;;;;2.17;0.70;;;;;;;13.96;100.00;96697.34;5058422;28;20024;-85
2021/05/16 01:11:14;;;;;;;0.60;0.60;;;;;;;13.89;100.00;96690.81;5074954;28;20032;-85
2021/05/16 01:13:40;;;;;;;0.60;0.60;;;;;;;13.90;100.00;96696.06;5074748;28;20023;-85
2021/05/16 01:16:06;;;;;;;0.28;0.28;;;;;;;13.86;100.00;96681.19;5091174;28;20062;-85
2021/05/16 01:18:31;;;;;;;0.20;0.20;;;;;;;13.96;100.00;96691.97;5061630;28;20031;-85
2021/05/16 01:20:57;;;;;;;0.88;0.65;;;;;;;13.93;100.00;96689.56;5095532;28;20024;-84
2021/05/16 01:24:05;;;;;;;0.22;0.20;;;;;;;13.90;100.00;96692.53;5062222;28;20028;-84
2021/05/16 01:26:13;;;;;;;0.30;0.30;;;;;;;13.89;100.00;96697.03;5074375;28;20034;-85
2021/05/16 01:28:38;;;;;;;0.57;0.30;;;;;;;13.73;100.00;96677.88;5079490;28;20106;-83
2021/05/16 01:31:05;;;;;;;2.08;1.25;;;;;;;13.76;100.00;96690.19;5062877;28;20036;-84
2021/05/16 01:33:31;;;;;;;0.30;0.20;;;;;;;13.81;100.00;96701.41;5095456;28;20027;-84
2021/05/16 01:35:56;;;;;;;0.55;0.52;;;;;;;13.85;100.00;96700.97;5062219;28;20483;-84
2021/05/16 01:38:22;;;;;;;1.23;0.70;;;;;;;13.85;100.00;96694.75;5062201;28;20055;-84
2021/05/16 01:40:47;;;;;;;1.00;0.68;;;;;;;13.85;100.00;96692.06;5095862;28;20024;-84
2021/05/16 01:43:14;;;;;;;0.60;0.55;;;;;;;13.88;100.00;96699.84;5095083;28;20522;-83
2021/05/16 01:45:40;;;;;;;0.75;0.63;;;;;;;13.92;100.00;96696.78;5062226;28;20499;-85
2021/05/16 01:48:06;;;;;;;0.22;0.22;;;;;;;13.85;100.00;96692.06;5062125;28;20461;-85
2021/05/16 01:50:34;;;;;;;2.20;0.60;;;;;;;13.91;100.00;96694.19;5061516;28;20020;-85
2021/05/16 01:53:01;;;;;;;1.15;0.50;;;;;;;13.86;100.00;96683.88;5095568;28;20052;-84
2021/05/16 01:55:27;;;;;;;3.65;1.25;;;;;;;13.92;100.00;96685.16;5061201;28;20483;-84
2021/05/16 01:57:54;;;;;;;0.20;0.20;;;;;;;13.83;100.00;96665.34;5078285;28;20047;-84
2021/05/16 02:00:28;;;;;;;2.55;1.48;;;;;;;13.91;100.00;96684.31;5078011;28;20099;-84
2021/05/16 02:02:55;;;;;;;1.08;0.55;;;;;;;13.81;100.00;96693.34;5078304;28;20024;-84
2021/05/16 02:05:21;;;;;;;0.55;0.55;;;;;;;13.77;100.00;96681.16;5061976;28;20028;-84
2021/05/16 02:07:50;;;;;;;1.90;0.77;;;;;;;13.81;100.00;96686.09;5060985;28;20043;-84
2021/05/16 02:10:17;;;;;;;0.38;0.38;;;;;;;13.75;100.00;96677.75;5077267;28;20461;-86
2021/05/16 02:12:43;;;;;;;0.75;0.75;;;;;;;13.74;100.00;96687.66;5078048;28;20438;-84
2021/05/16 02:15:11;;;;;;;0.50;0.32;;;;;;;13.70;100.00;96678.16;5094486;28;20119;-84
2021/05/16 02:17:39;;;;;;;0.30;0.22;;;;;;;13.72;100.00;96678.03;5094703;28;20066;-85
2021/05/16 02:20:07;;;;;;;0.10;0.10;;;;;;;13.76;100.00;96679.44;5060940;28;20032;-85
2021/05/16 02:22:32;;;;;;;0.35;0.35;;;;;;;13.74;100.00;96684.09;5077864;28;20609;-84
2021/05/16 02:24:58;;;;;;;0.73;0.43;;;;;;;13.75;100.00;96678.59;5094247;28;20035;-85
2021/05/16 02:27:23;;;;;;;0.22;0.22;;;;;;;13.74;100.00;96686.78;5060503;28;20032;-85
2021/05/16 02:29:49;;;;;;;2.30;0.88;;;;;;;13.65;100.00;96687.63;5061303;28;20434;-85
2021/05/16 02:32:15;;;;;;;1.20;0.57;;;;;;;13.70;100.00;96690.72;5093957;28;20036;-85
2021/05/16 02:34:40;;;;;;;0.30;0.30;;;;;;;13.70;100.00;96685.34;5061285;28;20173;-84
2021/05/16 02:37:06;;;;;;;0.52;0.40;;;;;;;13.68;100.00;96687.34;5060368;28;20024;-84
2021/05/16 02:39:31;;;;;;;0.20;0.20;;;;;;;13.65;100.00;96684.94;5060379;28;20118;-84
2021/05/16 02:41:57;;;;;;;3.70;1.30;;;;;;;13.61;100.00;96689.72;5060875;28;20414;-86
2021/05/16 02:44:23;;;;;;;1.70;1.30;;;;;;;13.63;100.00;96684.22;5095049;28;20024;-85
2021/05/16 02:46:48;;;;;;;0.40;0.30;;;;;;;13.66;100.00;96694.69;5060768;28;20426;-84
2021/05/16 02:49:14;;;;;;;0.55;0.52;;;;;;;13.68;100.00;96690.88;5060338;28;20031;-85
2021/05/16 02:51:39;;;;;;;0.20;0.20;;;;;;;13.66;100.00;96703.59;5060877;28;20114;-84
2021/05/16 02:54:06;;;;;;;1.13;0.52;;;;;;;13.62;100.00;96702.19;5076969;28;20123;-85
2021/05/16 02:56:32;;;;;;;2.13;0.73;;;;;;;13.70;100.00;96702.34;5094153;28;20078;-85
2021/05/16 02:58:58;;;;;;;0.30;0.30;;;;;;;13.75;100.00;96701.94;5060473;28;20032;-85
2021/05/16 03:01:24;;;;;;;0.85;0.32;;;;;;;13.71;100.00;96711.25;5093544;28;20038;-85
2021/05/16 03:03:49;;;;;;;0.80;0.22;;;;;;;13.72;100.00;96715.66;5060276;28;20491;-85
2021/05/16 03:06:15;;;;;;;0.70;0.60;;;;;;;13.78;100.00;96720.50;5059792;28;20063;-85
2021/05/16 03:08:41;;;;;;;0.38;0.38;;;;;;;13.76;100.00;96714.38;5076530;28;20077;-85
2021/05/16 03:11:06;;;;;;;1.92;1.30;;;;;;;13.81;100.00;96714.84;5059140;28;20445;-86
2021/05/16 03:13:32;;;;;;;0.17;0.17;;;;;;;13.85;100.00;96713.56;5059107;28;20031;-85
2021/05/16 03:15:58;;;;;;;1.52;1.02;;;;;;;13.79;100.00;96703.34;5059810;28;20024;-85
2021/05/16 03:18:23;;;;;;;0.30;0.30;;;;;;;13.84;100.00;96717.25;5060026;28;20028;-86
2021/05/16 03:20:49;;;;;;;1.10;0.75;;;;;;;13.80;100.00;96707.75;5060037;28;20048;-86
2021/05/16 03:23:15;;;;;;;0.28;0.28;;;;;;;13.86;100.00;96717.97;5059631;28;20081;-86
2021/05/16 03:25:40;;;;;;;0.63;0.35;;;;;;;13.75;100.00;96702.78;5095694;28;20517;-86
2021/05/16 03:28:06;;;;;;;2.33;0.80;;;;;;;13.86;100.00;96712.59;5059685;28;20036;-86
2021/05/16 03:30:32;;;;;;;0.85;0.45;;;;;;;13.85;100.00;96709.06;5059484;28;20387;-86
2021/05/16 03:33:01;;;;;;;0.17;0.17;;;;;;;13.89;100.00;96717.69;5092932;28;20047;-86
2021/05/16 03:35:27;;;;;;;1.75;0.60;;;;;;;13.91;100.00;96726.47;5060844;28;20085;-86
2021/05/16 03:37:53;;;;;;;1.13;0.60;;;;;;;13.87;100.00;96725.06;5076406;28;20020;-84
2021/05/16 03:40:19;;;;;;;0.47;0.47;;;;;;;13.93;100.00;96722.69;5075363;28;20138;-85
2021/05/16 03:42:44;;;;;;;0.52;0.28;;;;;;;13.97;100.00;96725.91;5060065;28;20519;-86
2021/05/16 03:45:12;;;;;;;0.30;0.30;;;;;;;13.92;100.00;96730.88;5075883;28;20095;-85
2021/05/16 03:47:38;;;;;;;0.57;0.52;;;;;;;13.92;100.00;96720.97;5092863;28;20107;-85
2021/05/16 03:50:06;;;;;;;4.90;1.67;;;;;;;14.01;100.00;96735.44;5092534;28;20523;-85
2021/05/16 03:52:31;;;;;;;0.88;0.43;;;;;;;13.97;100.00;96731.31;5092354;28;20027;-86
2021/05/16 03:54:57;;;;;;;0.47;0.47;;;;;;;14.02;100.00;96735.31;5058890;28;20040;-85
2021/05/16 04:00:37;;;;;;;0.43;0.43;;;;;;;13.96;100.00;96716.19;5093776;28;20024;-85
2021/05/16 04:03:02;;;;;;;1.17;0.52;;;;;;;14.10;100.00;96726.53;5059355;28;20058;-85
2021/05/16 04:05:28;;;;;;;0.40;0.40;;;;;;;14.20;100.00;96731.97;5059893;28;20056;-87
2021/05/16 04:07:54;;;;;;;0.50;0.50;;;;;;;14.27;100.00;96739.34;5060962;28;20057;-84
2021/05/16 04:10:20;;;;;;;1.80;0.98;;;;;;;14.28;100.00;96734.78;5062467;28;20546;-85
2021/05/16 04:12:45;;;;;;;1.40;0.52;;;;;;;14.28;100.00;96735.66;5060269;28;20038;-85
2021/05/16 04:15:11;;;;;;;0.65;0.65;;;;;;;14.26;100.00;96734.94;5075956;28;20380;-86
2021/05/16 04:17:36;;;;;;;5.18;1.58;;;;;;;14.27;100.00;96733.13;5059168;28;20408;-85
2021/05/16 04:20:06;;;;;;;0.82;0.43;;;;;;;14.22;100.00;96740.72;5058846;28;20024;-85
2021/05/16 04:22:31;;;;;;;0.70;0.70;;;;;;;14.27;100.00;96744.72;5058281;28;20487;-85
2021/05/16 04:24:58;;;;;;;3.50;1.92;;;;;;;14.34;100.00;96734.28;5061841;28;20108;-85
2021/05/16 04:27:23;;;;;;;0.22;0.22;;;;;;;14.42;100.00;96742.53;5055753;28;20047;-85
2021/05/16 04:29:49;;;;;;;0.95;0.52;;;;;;;14.42;100.00;96742.53;5058705;28;20031;-85
2021/05/16 04:32:15;;;;;;;1.10;0.75;;;;;;;14.48;100.00;96742.84;5059190;28;20020;-86
2021/05/16 04:34:41;;;;;;;0.32;0.17;;;;;;;14.56;100.00;96745.66;5058987;28;20039;-85
2021/05/16 04:37:06;;;;;;;2.45;0.88;;;;;;;14.61;100.00;96758.72;5059080;28;20413;-86
2021/05/16 04:39:32;;;;;;;0.25;0.25;;;;;;;14.59;100.00;96753.47;5058767;28;20028;-86
2021/05/16 04:41:57;;;;;;;1.50;0.98;;;;;;;14.63;100.00;96762.13;5059679;28;20024;-86
2021/05/16 04:44:23;;;;;;;0.73;0.70;;;;;;;14.71;100.00;96759.56;5075001;28;20036;-83
2021/05/16 04:46:48;;;;;;;4.85;1.58;;;;;;;14.70;100.00;96767.78;5058344;28;20035;-84
2021/05/16 04:49:15;;;;;;;0.40;0.40;;;;;;;14.57;100.00;96763.53;5079240;28;20375;-83
2021/05/16 04:51:41;;;;;;;1.35;0.88;;;;;;;14.65;100.00;96760.13;5060880;28;20032;-84
2021/05/16 04:54:06;;;;;;;1.05;0.85;;;;;;;14.56;100.00;96760.97;5059434;28;20090;-85
2021/05/16 04:56:32;;;;;;;0.47;0.47;;;;;;;14.63;100.00;96757.59;5093763;28;20024;-85
2021/05/16 04:58:58;;;;;;;0.98;0.68;;;;;;;14.79;100.00;96765.13;5059743;28;20115;-85
2021/05/16 05:01:23;;;;;;;1.60;0.82;;;;;;;14.93;100.00;96763.84;5058859;28;20178;-85
2021/05/16 05:03:49;;;;;;;1.13;0.57;;;;;;;15.03;100.00;96764.69;5062921;28;20038;-85
2021/05/16 05:06:15;;;;;;;1.15;0.88;;;;;;;15.18;100.00;96776.75;5062155;28;20390;-85
2021/05/16 05:08:40;;;;;;;0.65;0.47;;;;;;;15.34;100.00;96760.88;5062394;28;20117;-86
2021/05/16 05:11:06;;;;;;;0.68;0.68;;;;;;;15.39;100.00;96765.81;5061688;28;20108;-85
2021/05/16 05:13:32;;;;;;;0.22;0.22;;;;;;;15.26;100.00;96765.28;5075388;28;20029;-84
2021/05/16 05:15:58;;;;;;;0.32;0.32;;;;;;;15.33;100.00;96753.75;5061261;28;20085;-84
2021/05/16 05:18:23;;;;;;;0.63;0.43;;;;;;;15.39;100.00;96766.66;5061969;28;20027;-85
2021/05/16 05:20:50;;;;;;;0.20;0.20;;;;;;;15.33;100.00;96761.84;5061444;28;20024;-85
2021/05/16 05:23:16;;;;;;;0.30;0.30;;;;;;;15.46;100.00;96772.34;5078844;28;20154;-84
2021/05/16 05:25:41;;;;;;;0.43;0.32;;;;;;;15.46;100.00;96778.56;5095833;28;20028;-84
2021/05/16 05:28:07;;;;;;;0.88;0.75;;;;;;;15.60;100.00;96769.22;5062024;28;20024;-85
2021/05/16 05:30:33;;;;;;;1.95;0.88;;;;;;;15.72;100.00;96777.00;5062064;28;20031;-84
2021/05/16 05:32:58;;;;;;;0.88;0.55;;;;;;;15.53;100.00;96771.66;5062260;28;20028;-84
2021/05/16 05:35:24;;;;;;;2.20;0.75;;;;;;;15.47;100.00;96769.50;5095469;28;20032;-85
2021/05/16 05:37:50;;;;;;;0.73;0.60;;;;;;;15.67;100.00;96778.44;5061865;28;20035;-84
2021/05/16 05:40:16;;;;;;;0.50;0.50;;;;;;;15.71;100.00;96777.16;5062001;28;20115;-84
2021/05/16 05:42:42;;;;;;;0.80;0.73;;;;;;;15.91;99.67;96788.72;5062293;28;20038;-84
2021/05/16 05:45:09;;;;;;;4.20;0.88;;;;;;;16.01;98.97;96789.53;5061920;28;20028;-83
2021/05/16 05:47:36;;;;;;;0.57;0.30;;;;;;;16.17;97.20;96790.63;5078485;28;20020;-85
2021/05/16 05:50:03;;;;;;;0.70;0.70;;;;;;;16.47;95.94;96784.09;5078799;28;20016;-84
2021/05/16 05:52:37;;;;;;;0.60;0.60;;;;;;;16.73;95.87;96785.09;5062030;28;20024;-84
2021/05/16 05:55:04;;;;;;;1.52;0.75;;;;;;;17.15;93.26;96781.84;5096153;28;20048;-84
2021/05/16 05:57:29;;;;;;;5.38;0.77;;;;;;;17.69;89.84;96797.03;5078237;28;20039;-85
2021/05/16 05:59:55;;;;;;;1.65;0.68;;;;;;;18.19;87.95;96802.63;5059644;28;20431;-80
2021/05/16 06:02:21;;;;;;;0.88;0.50;;;;;;;18.25;86.15;96804.69;5059364;28;20056;-80
2021/05/16 06:04:46;;;;;;;2.17;1.05;;;;;;;18.16;88.05;96800.25;5050573;28;20436;-80
2021/05/16 06:07:12;;;;;;;0.98;0.55;;;;;;;18.37;84.41;96803.41;5057496;28;20025;-81
2021/05/16 06:09:38;;;;;;;0.93;0.40;;;;;;;18.34;84.78;96801.88;5054812;28;20511;-81
2021/05/16 06:12:06;;;;;;;0.63;0.55;;;;;;;18.40;85.60;96797.66;5068035;28;20436;-81
2021/05/16 06:14:34;;;;;;;0.20;0.20;;;;;;;18.89;83.71;96794.19;5060602;28;20035;-82
2021/05/16 06:17:00;;;;;;;0.38;0.30;;;;;;;19.29;81.79;96800.69;5040242;28;20036;-81
2021/05/16 06:19:26;;;;;;;0.95;0.50;;;;;;;19.53;77.76;96803.50;5071124;28;20442;-81
2021/05/16 06:21:52;;;;;;;1.08;0.55;;;;;;;19.60;76.58;96799.06;5049251;28;20032;-82
2021/05/16 06:24:18;;;;;;;0.20;0.20;;;;;;;19.25;78.88;96802.06;5069408;28;20487;-81
2021/05/16 06:26:45;;;;;;;0.40;0.40;;;;;;;19.23;79.11;96802.22;5041780;28;20398;-82
2021/05/16 06:29:11;;;;;;;0.38;0.38;;;;;;;19.60;77.52;96811.78;5051443;28;20020;-81
2021/05/16 06:31:37;;;;;;;0.50;0.50;;;;;;;19.63;77.11;96815.03;5076465;28;20015;-81
2021/05/16 06:34:03;;;;;;;2.00;0.80;;;;;;;19.58;75.46;96821.97;5057515;28;20035;-83
2021/05/16 06:36:29;;;;;;;0.20;0.20;;;;;;;19.83;74.67;96819.09;5096351;28;20387;-83
2021/05/16 06:38:55;;;;;;;0.73;0.68;;;;;;;19.63;76.01;96809.59;5054207;28;20028;-84
2021/05/16 06:41:23;;;;;;;1.33;0.60;;;;;;;19.58;78.47;96813.84;5040854;28;20057;-83
2021/05/16 06:43:50;;;;;;;0.25;0.25;;;;;;;19.63;78.02;96803.31;5056112;28;20035;-84
2021/05/16 06:46:16;;;;;;;0.43;0.38;;;;;;;19.56;79.93;96808.59;5049194;28;20515;-83
2021/05/16 06:48:41;;;;;;;0.95;0.68;;;;;;;19.83;77.61;96799.25;5050481;28;20024;-85
2021/05/16 06:51:10;;;;;;;1.35;1.02;;;;;;;20.41;73.23;96809.88;5048735;28;20051;-84
2021/05/16 06:53:35;;;;;;;3.70;1.58;;;;;;;20.81;72.97;96795.31;5051331;28;20534;-85
2021/05/16 06:56:01;;;;;;;0.95;0.55;;;;;;;21.12;69.92;96792.63;5055970;28;20028;-84
2021/05/16 06:58:27;;;;;;;0.68;0.63;;;;;;;21.00;69.51;96792.16;5056395;28;20028;-85
2021/05/16 07:00:53;;;;;;;2.33;1.08;;;;;;;20.76;70.96;96792.28;5052851;28;20035;-86
2021/05/16 07:03:19;;;;;;;0.63;0.60;;;;;;;20.77;71.46;96797.53;5056841;28;20039;-84
2021/05/16 07:05:44;;;;;;;0.40;0.30;;;;;;;20.76;68.63;96790.41;5054326;28;20418;-85
2021/05/16 07:08:10;;;;;;;1.25;0.47;;;;;;;20.65;68.93;96784.50;5057080;28;20031;-83
2021/05/16 07:10:36;;;;;;;0.63;0.60;;;;;;;20.72;71.26;96791.78;5091376;28;20399;-82
2021/05/16 07:13:01;;;;;;;3.03;1.08;;;;;;;20.82;68.96;96799.72;5068447;28;20036;-83
2021/05/16 07:15:27;;;;;;;1.92;0.88;;;;;;;20.81;68.67;96793.44;5052705;28;20024;-82
2021/05/16 07:17:53;;;;;;;9.45;2.08;;;;;;;20.80;69.71;96799.88;5074454;28;20742;-82
2021/05/16 07:20:18;;;;;;;1.55;1.10;;;;;;;20.63;71.42;96798.28;5057668;28;20472;-82
2021/05/16 07:22:44;;;;;;;0.82;0.55;;;;;;;20.28;73.85;96795.97;5057881;28;20517;-82
2021/05/16 07:25:11;;;;;;;0.57;0.50;;;;;;;19.82;73.64;96800.25;5057125;28;20517;-82
2021/05/16 07:27:36;;;;;;;0.60;0.60;;;;;;;19.91;75.44;96785.66;5057659;28;20460;-82
2021/05/16 07:30:03;;;;;;;0.45;0.45;;;;;;;20.07;75.29;96801.09;5090170;28;20040;-82
2021/05/16 07:32:29;;;;;;;0.45;0.40;;;;;;;19.69;71.25;96798.06;5057240;28;20031;-82
2021/05/16 07:34:54;;;;;;;1.17;0.98;;;;;;;19.78;72.74;96775.31;5057529;28;20028;-82
2021/05/16 07:37:20;;;;;;;3.60;0.90;;;;;;;19.91;74.80;96791.09;5056630;28;20537;-83
2021/05/16 07:39:46;;;;;;;0.63;0.40;;;;;;;19.90;75.07;96790.25;5057163;28;20403;-75
2021/05/16 07:42:11;;;;;;;0.65;0.50;;;;;;;19.96;74.02;96800.41;5090982;28;20039;-81
2021/05/16 07:44:37;;;;;;;0.15;0.15;;;;;;;20.16;74.73;96800.06;5057941;28;20028;-80
2021/05/16 07:47:02;;;;;;;0.73;0.63;;;;;;;20.52;75.05;96796.75;5073764;28;20042;-83
2021/05/16 07:49:28;;;;;;;0.20;0.20;;;;;;;20.40;72.00;96803.59;5057333;28;20487;-83
2021/05/16 07:51:54;;;;;;;0.30;0.28;;;;;;;20.38;72.68;96793.94;5048614;28;20540;-82
2021/05/16 07:54:19;;;;;;;0.57;0.50;;;;;;;21.01;71.26;96791.13;5055995;28;20522;-83
2021/05/16 07:56:45;;;;;;;0.22;0.22;;;;;;;21.93;66.89;96791.00;5056414;28;20111;-83
2021/05/16 07:59:11;;;;;;;6.97;1.75;;;;;;;22.40;63.17;96795.31;5046052;28;20028;-83
2021/05/16 08:01:40;;;;;;;1.80;0.95;;;;;;;23.02;60.25;96791.19;5048979;28;20033;-84
2021/05/16 08:04:05;;;;;;;0.73;0.52;;;;;;;23.94;57.20;96794.94;5056820;28;20058;-84
2021/05/16 08:06:31;;;;;;;0.43;0.43;;;;;;;23.84;55.19;96799.06;5057887;28;20024;-83
2021/05/16 08:08:57;;;;;;;0.63;0.30;;;;;;;23.81;56.86;96799.47;5089938;28;20028;-82
2021/05/16 08:11:22;;;;;;;0.15;0.15;;;;;;;24.02;55.25;96800.28;5056692;28;20028;-82
2021/05/16 08:13:48;;;;;;;3.50;1.00;;;;;;;24.09;55.21;96816.72;5089966;28;20050;-82
2021/05/16 08:16:14;;;;;;;0.40;0.40;;;;;;;23.67;53.71;96806.66;5069153;28;20063;-82
2021/05/16 08:18:39;;;;;;;0.25;0.25;;;;;;;22.92;57.01;96808.88;5055287;28;20032;-76
2021/05/16 08:21:05;;;;;;;0.70;0.57;;;;;;;22.86;57.20;96813.22;5073812;28;20428;-76
2021/05/16 08:23:31;;;;;;;0.10;0.10;;;;;;;22.29;60.72;96810.28;5051922;28;20035;-77
2021/05/16 08:25:57;;;;;;;0.22;0.22;;;;;;;22.07;61.63;96805.72;5047032;28;20032;-76
2021/05/16 08:28:25;;;;;;;1.38;0.50;;;;;;;21.34;61.89;96795.38;5064017;28;20033;-75
2021/05/16 08:30:51;;;;;;;0.38;0.38;;;;;;;21.11;63.04;96794.50;5053227;28;20035;-76
2021/05/16 08:33:17;;;;;;;1.23;0.75;;;;;;;21.27;65.27;96808.00;5053806;28;20027;-76
2021/05/16 08:35:42;;;;;;;0.55;0.28;;;;;;;21.01;64.92;96807.47;5054783;28;20514;-75
2021/05/16 08:38:09;;;;;;;0.10;0.10;;;;;;;20.93;67.74;96800.16;5068958;28;20067;-84
2021/05/16 08:40:35;;;;;;;1.38;0.95;;;;;;;20.90;68.86;96797.81;5055388;28;20498;-80
2021/05/16 08:43:02;;;;;;;2.80;1.05;;;;;;;20.85;70.34;96802.94;5054121;28;20036;-80
2021/05/16 08:45:27;;;;;;;0.60;0.57;;;;;;;20.78;68.76;96804.66;5072075;28;20536;-80
2021/05/16 08:47:53;;;;;;;10.63;0.70;;;;;;;20.58;69.16;96806.09;5067913;28;20031;-80
2021/05/16 08:50:19;;;;;;;0.30;0.30;;;;;;;20.36;69.61;96813.13;5053714;28;20032;-77
2021/05/16 08:52:44;;;;;;;2.25;0.80;;;;;;;20.41;72.01;96816.16;5087147;28;20036;-72
2021/05/16 08:55:13;;;;;;;0.52;0.52;;;;;;;20.24;72.23;96824.50;5086506;28;20156;-74
2021/05/16 08:57:43;;;;;;;0.60;0.20;;;;;;;20.23;73.34;96823.66;5049206;28;20574;-74
2021/05/16 09:00:15;;;;;;;1.02;0.43;;;;;;;20.11;72.37;96830.47;5104112;28;20039;-74
2021/05/16 09:03:02;;;;;;;0.05;0.05;;;;;;;20.16;74.73;96819.91;5071229;28;20089;-80
2021/05/16 09:05:35;;;;;;;0.50;0.50;;;;;;;20.22;73.56;96815.66;5071009;28;20513;-80
2021/05/16 09:08:16;;;;;;;0.20;0.20;;;;;;;20.10;73.87;96822.47;5071532;28;20028;-79
2021/05/16 09:11:06;;;;;;;0.38;0.20;;;;;;;20.29;75.27;96819.41;5087763;28;20036;-74
2021/05/16 09:13:33;;;;;;;1.20;0.77;;;;;;;20.50;72.81;96815.13;5072347;28;20031;-74
2021/05/16 09:16:05;;;;;;;9.25;5.20;;;;;;;20.39;73.47;96814.66;5049656;28;20040;-75
2021/05/16 09:18:32;;;;;;;0.98;0.82;;;;;;;20.58;71.69;96816.94;5062111;28;20396;-74
2021/05/16 09:21:18;;;;;;;0.50;0.50;;;;;;;20.79;71.55;96808.22;5087068;28;20415;-74
2021/05/16 09:23:44;;;;;;;1.52;0.98;;;;;;;20.97;71.41;96815.13;5053398;28;20550;-74
2021/05/16 09:26:13;;;;;;;0.45;0.45;;;;;;;20.76;69.46;96825.75;5070023;28;20024;-74
2021/05/16 09:28:38;;;;;;;0.40;0.40;;;;;;;21.23;68.93;96811.25;5088039;28;20032;-74
2021/05/16 09:31:06;;;;;;;0.50;0.50;;;;;;;21.58;67.67;96806.09;5069871;28;20419;-74
2021/05/16 09:33:32;;;;;;;0.85;0.60;;;;;;;22.38;65.38;96808.31;5070254;28;20043;-74
2021/05/16 09:35:59;;;;;;;0.30;0.30;;;;;;;22.34;64.50;96817.88;5049005;28;20036;-74
2021/05/16 09:38:24;;;;;;;0.30;0.20;;;;;;;22.66;61.18;96807.50;5048918;28;20044;-73
2021/05/16 09:40:52;;;;;;;0.60;0.47;;;;;;;23.78;60.44;96802.59;5056817;28;20032;-74
2021/05/16 09:43:25;;;;;;;3.22;1.10;;;;;;;24.99;54.30;96806.69;5054383;28;20028;-74
2021/05/16 09:45:54;;;;;;;0.28;0.28;;;;;;;26.07;48.60;96803.03;5074257;28;20070;-74
2021/05/16 09:48:33;;;;;;;3.05;1.70;;;;;;;26.81;46.05;96806.41;5074091;28;20042;-75
2021/05/16 09:51:07;;;;;;;1.17;0.73;;;;;;;27.59;43.82;96809.97;5054273;28;20407;-75
2021/05/16 09:53:44;;;;;;;1.08;0.55;;;;;;;27.96;39.53;96818.16;5085342;28;20454;-75
2021/05/16 09:56:26;;;;;;;0.20;0.13;;;;;;;26.04;43.54;96803.44;5070728;28;20411;-75
2021/05/16 09:58:57;;;;;;;0.17;0.17;;;;;;;27.29;41.58;96799.47;5086078;28;20026;-74
2021/05/16 10:01:24;;;;;;;0.43;0.38;;;;;;;27.99;38.74;96805.91;5063891;28;20446;-74
2021/05/16 10:03:50;;;;;;;0.22;0.20;;;;;;;28.85;38.17;96811.56;5057350;28;20020;-75
2021/05/16 10:06:17;;;;;;;0.30;0.30;;;;;;;28.54;39.05;96804.22;5073337;28;20028;-76
2021/05/16 10:08:46;;;;;;;0.43;0.32;;;;;;;28.21;40.09;96798.97;5071928;28;20028;-75
2021/05/16 10:11:13;;;;;;;0.30;0.30;;;;;;;28.78;38.88;96799.78;5073315;28;20107;-77
2021/05/16 10:13:41;;;;;;;0.10;0.10;;;;;;;28.48;39.44;96796.88;5072989;28;20020;-74
2021/05/16 10:16:12;;;;;;;0.55;0.55;;;;;;;29.00;39.37;96798.28;5064848;28;20051;-74
2021/05/16 10:18:38;;;;;;;0.00;0.00;;;;;;;28.77;38.40;96796.19;5100455;28;20511;-74
2021/05/16 10:21:07;;;;;;;0.13;0.08;;;;;;;30.04;35.44;96781.47;5055928;28;20406;-74
2021/05/16 10:23:37;;;;;;;0.10;0.10;;;;;;;30.36;35.60;96785.63;5072627;28;20028;-74
2021/05/16 10:26:22;;;;;;;0.13;0.13;;;;;;;31.45;33.48;96795.91;5072600;28;20063;-73
2021/05/16 10:28:53;;;;;;;1.25;1.13;;;;;;;31.42;33.21;96781.72;5066456;28;20078;-74
2021/05/16 10:31:41;;;;;;;1.75;1.42;;;;;;;30.63;33.66;96764.78;5072691;28;20023;-74
2021/05/16 10:34:27;;;;;;;3.33;1.70;;;;;;;32.73;30.82;96778.72;5072253;28;20483;-74
2021/05/16 10:36:57;;;;;;;5.80;1.50;;;;;;;34.01;28.68;96769.03;5071814;28;20028;-74
2021/05/16 10:39:38;;;;;;;1.50;1.30;;;;;;;34.37;27.54;96771.06;5071926;28;20616;-75
2021/05/16 10:42:14;;;;;;;3.20;1.77;;;;;;;32.31;30.82;96758.84;5087899;28;20028;-74
2021/05/16 10:45:13;;;;;;;2.45;1.55;;;;;;;31.12;33.31;96765.34;5088521;28;20068;-74
2021/05/16 10:50:32;;;;;;;6.32;2.58;;;;;;;27.47;39.71;96743.03;5089976;28;20062;-74
2021/05/16 10:53:05;;;;;;;3.40;1.55;;;;;;;28.31;38.04;96743.44;5090325;28;20040;-73
2021/05/16 10:55:40;;;;;;;3.63;1.60;;;;;;;28.10;37.92;96741.94;5089610;28;20109;-74
2021/05/16 10:58:07;;;;;;;6.35;2.28;;;;;;;27.55;39.67;96742.75;5055313;28;20050;-74
2021/05/16 11:00:40;;;;;;;2.05;1.65;;;;;;;26.69;43.47;96742.22;5071746;28;20035;-74
2021/05/16 11:03:09;;;;;;;8.52;1.80;;;;;;;26.48;43.37;96745.25;5055031;28;20411;-74
2021/05/16 11:05:48;;;;;;;8.13;3.45;;;;;;;26.11;42.59;96739.34;5072078;28;20089;-74
2021/05/16 11:08:16;;;;;;;3.28;1.45;;;;;;;25.43;44.19;96736.94;5089862;28;20479;-73
2021/05/16 11:10:52;;;;;;;4.85;1.70;;;;;;;25.56;47.78;96728.78;5071517;28;20436;-74
2021/05/16 11:13:17;;;;;;;2.85;1.75;;;;;;;25.75;45.75;96730.69;5055024;28;20097;-74
2021/05/16 11:15:46;;;;;;;5.05;1.77;;;;;;;25.65;45.90;96727.53;5071845;28;20482;-74
2021/05/16 11:18:15;;;;;;;3.83;2.35;;;;;;;24.29;48.24;96716.63;5071195;28;20112;-74
2021/05/16 11:20:42;;;;;;;3.47;1.92;;;;;;;23.89;49.87;96718.22;5071960;28;20415;-74
2021/05/16 11:23:07;;;;;;;5.47;2.50;;;;;;;23.99;50.14;96729.66;5083943;28;20142;-74
2021/05/16 11:25:33;;;;;;;5.85;2.80;;;;;;;23.82;50.79;96721.91;5071503;28;20024;-73
2021/05/16 11:27:58;;;;;;;3.05;2.47;;;;;;;23.43;52.21;96722.41;5071246;28;20084;-73
2021/05/16 11:30:27;;;;;;;3.85;2.20;;;;;;;22.75;54.09;96723.72;5071186;28;20024;-73
2021/05/16 11:32:53;;;;;;;5.65;2.00;;;;;;;22.76;54.54;96725.41;5071288;28;20403;-73
2021/05/16 11:35:21;;;;;;;12.70;4.13;;;;;;;22.58;55.74;96727.66;5070657;28;20028;-74